Neligh, NE

3:22 AM CDT on July 08, 2015 (GMT -0500)
KNENELIG1 | | Change Station
CLOSE
Current Station
Personal Weather Station
Location: Neligh, NE
Elevation: 1750 ft
Nearby Weather Stations

Elev 1750 ft 42.13 °N, 98.03 °W | Updated 2 minutes ago

Partly Cloudy
Partly Cloudy
53.4 °F
Feels Like 53.4 °F
N
0.0
Wind Variable Wind from North
Gusts 0.0 mph

Today
High -- | Low -- °F
--% Chance of Precip.
Yesterday
High -- | Low -- °F
Precip. -- in
6:03 AM 9:10 PM
Waning Gibbous, 56% visible
Pressure 30.08 in
Visibility 7.0 miles
Clouds Clear
Dew Point 51 °F
Humidity 91%
Rainfall 0.00 in
Snow Depth Not available.
UV 0 out of 12
Pollen 4.00 out of 12
Air Quality Not available.
Flu Activity Not available.
METAR KBVN 080815Z AUTO 00000KT 7SM CLR 09/07 A3008 RMK AO2 T00870072

More Conditions Fewer Conditions

Pressure 30.08 in
Visibility 7.0 miles
Clouds Clear
Dew Point 51 °F
Humidity 91%
Rainfall 0.00 in
Snow Depth Not available.
UV 0 out of 12
Pollen 4.00 out of 12
Air Quality Not available.
Flu Activity Not available.
METAR KBVN 080815Z AUTO 00000KT 7SM CLR 09/07 A3008 RMK AO2 T00870072

More Conditions Fewer Conditions

10-Day Weather Forecast

×

Almanac

Astronomy

Jul. 08, 2015 Rise Set
Actual Time
Civil Twilight
Nautical Twilight
Astronomical Twilight
Moon
Length of Visible Light
Length of Day
Tomorrow will be .
, % of the Moon is Illuminated

Today's Extremes

State Highs State Lows

Community

WunderPhotos

Upload Photos

1,836,087 photos uploaded!

WunderBlogs® & News

Nearby

Air Quality

  Air Quality AQ Index Pollutant
Not available.

Snow Depth

Station Depth Elevation

Earthquake Activity

City Distance Mag. Time & Date
Minimum magnitude displayed is 2.5.

Coastal Water Temperatures

Place Temperature

Stations

Nearby Weather Stations

Station Location Temp. Windchill Dew Point Humidity Wind Precip. Elev Updated Type